Airport ICAO


07:54 UTC

28°C

Clear skies


An affordable passengers' Moving Map for your aircraft. Made for the iPad and the iPhone
More information here

LFMD Mandelieu


Cannes FRANCE   VFR CAVOK


METAR LFMD 210730Z AUTO VRB03KT CAVOK 28/17 Q1016 NOSIG 0h24min

TAF LFMD 210200Z 2103/2203 VRB03KT CAVOK BECMG 2108/2110 18010KT BECMG 2116/2118 VRB02KT PROB30 TEMPO 2200/2203 06010KT BKN014 5h54min





NOTAMS

OPEN